Time;durP1;ratioP1;P1;durP2;ratioP2;P2;SDS_P1;SDS_P2;PMS_P1;PMS_P2;Temp;Humidity;BMP_temperature;BMP_pressure;BME280_temperature;BME280_humidity;BME280_pressure;Samples;Min_cycle;Max_cycle;Signal;HPM_P1;HPM_P2
2022/08/03 00:01:15;;;;;;;3.08;2.78;;;20.10;66.70;;;;;;5072405;28;20024;-75
2022/08/03 00:03:41;;;;;;;3.78;3.05;;;20.00;67.30;;;;;;5072470;28;20082;-76
2022/08/03 00:06:07;;;;;;;4.80;2.80;;;19.90;67.90;;;;;;5072249;28;20025;-76
2022/08/03 00:08:33;;;;;;;3.88;2.95;;;19.90;68.10;;;;;;5072323;28;20028;-76
2022/08/03 00:11:01;;;;;;;3.42;2.75;;;19.90;68.20;;;;;;5072281;28;20055;-76
2022/08/03 00:13:27;;;;;;;3.20;2.72;;;19.80;68.50;;;;;;5072049;28;20021;-76
2022/08/03 00:15:53;;;;;;;3.42;2.75;;;19.90;68.40;;;;;;5072147;28;20029;-75
2022/08/03 00:18:19;;;;;;;7.57;2.97;;;19.80;68.60;;;;;;5072333;28;20027;-77
2022/08/03 00:20:44;;;;;;;3.83;2.85;;;19.80;68.10;;;;;;5072349;28;20423;-76
2022/08/03 00:23:10;;;;;;;3.90;3.17;;;19.90;68.20;;;;;;5072290;28;20492;-76
2022/08/03 00:25:37;;;;;;;3.20;2.40;;;19.90;68.00;;;;;;5080490;28;20025;-76
2022/08/03 00:28:04;;;;;;;3.90;2.80;;;19.90;67.90;;;;;;5087410;28;20025;-76
2022/08/03 00:30:30;;;;;;;4.18;2.83;;;20.00;67.80;;;;;;5076842;28;20115;-76
2022/08/03 00:32:55;;;;;;;3.20;2.92;;;20.00;67.80;;;;;;5075859;28;20067;-76
2022/08/03 00:35:22;;;;;;;4.82;2.60;;;20.00;67.70;;;;;;5072582;28;20035;-76
2022/08/03 00:37:47;;;;;;;6.35;2.95;;;20.10;67.50;;;;;;5071863;28;20476;-76
2022/08/03 00:40:15;;;;;;;4.53;2.95;;;20.30;67.00;;;;;;5071587;28;20059;-76
2022/08/03 00:42:54;;;;;;;2.83;2.60;;;20.50;66.60;;;;;;5071745;28;20021;-77
2022/08/03 00:45:40;;;;;;;3.55;2.75;;;20.60;66.00;;;;;;5071702;28;20362;-77
2022/08/03 00:48:06;;;;;;;;;;;20.70;65.60;;;;;;5072142;28;20078;-77
2022/08/03 00:50:36;;;;;;;3.90;2.60;;;20.70;65.10;;;;;;5071762;28;19911;-77
2022/08/03 00:53:04;;;;;;;3.47;2.40;;;20.60;65.30;;;;;;5071761;28;20048;-76
2022/08/03 00:55:30;;;;;;;4.00;2.60;;;20.70;65.40;;;;;;5071579;28;20119;-76
2022/08/03 00:57:55;;;;;;;2.85;2.58;;;20.60;65.10;;;;;;5071702;28;20051;-78
2022/08/03 01:00:25;;;;;;;4.75;2.58;;;20.60;65.50;;;;;;5071732;28;20035;-77
2022/08/03 01:02:52;;;;;;;5.03;2.78;;;20.60;65.50;;;;;;5074413;28;20051;-77
2022/08/03 01:05:19;;;;;;;6.45;2.58;;;20.70;64.90;;;;;;5075748;28;20074;-76
2022/08/03 01:08:02;;;;;;;3.55;2.33;;;20.80;64.80;;;;;;5075704;28;20025;-77
2022/08/03 01:10:39;;;;;;;3.20;2.50;;;20.80;64.60;;;;;;5075935;28;20381;-77
2022/08/03 01:13:14;;;;;;;2.53;2.33;;;20.80;64.50;;;;;;5075903;28;20021;-76
2022/08/03 01:15:57;;;;;;;3.00;2.58;;;20.80;64.30;;;;;;5075649;28;20036;-77
2022/08/03 01:18:57;;;;;;;2.70;2.30;;;20.90;64.40;;;;;;5075694;28;20664;-77
2022/08/03 01:21:33;;;;;;;3.00;2.65;;;21.00;64.00;;;;;;5077011;28;20019;-76
2022/08/03 01:24:04;;;;;;;2.40;2.20;;;21.00;63.90;;;;;;5075684;28;20025;-78
2022/08/03 01:27:01;;;;;;;2.78;2.50;;;21.00;63.60;;;;;;5075497;28;20021;-77
2022/08/03 01:29:45;;;;;;;2.47;2.28;;;21.00;63.80;;;;;;5075361;28;20085;-76
2022/08/03 01:32:15;;;;;;;5.00;2.08;;;21.00;63.80;;;;;;5075316;28;20056;-76
2022/08/03 01:34:46;;;;;;;2.05;1.88;;;21.00;64.40;;;;;;5075163;28;20036;-77
2022/08/03 01:37:18;;;;;;;3.28;2.60;;;21.00;63.90;;;;;;5075160;28;20070;-77
2022/08/03 01:39:44;;;;;;;2.97;2.55;;;21.00;63.80;;;;;;5075350;28;20119;-77
2022/08/03 01:42:12;;;;;;;2.63;2.28;;;20.90;64.20;;;;;;5075135;28;20453;-77
2022/08/03 01:44:41;;;;;;;2.42;2.20;;;20.70;64.80;;;;;;5076261;28;20032;-77
2022/08/03 01:47:09;;;;;;;5.90;2.00;;;20.60;65.30;;;;;;5075009;28;20043;-77
2022/08/03 01:49:42;;;;;;;4.45;2.42;;;20.40;66.20;;;;;;5074686;28;20483;-77
2022/08/03 01:52:09;;;;;;;4.07;2.47;;;20.00;67.40;;;;;;5074833;28;20044;-78
2022/08/03 01:54:42;;;;;;;4.15;2.47;;;19.70;68.70;;;;;;5074846;28;20067;-78
2022/08/03 01:57:09;;;;;;;8.05;2.42;;;19.50;69.70;;;;;;5074592;28;20111;-78
2022/08/03 01:59:36;;;;;;;4.68;2.60;;;19.50;70.10;;;;;;5074676;28;20549;-78
2022/08/03 02:02:04;;;;;;;2.85;2.25;;;19.40;70.50;;;;;;5074580;28;20052;-78
2022/08/03 02:04:30;;;;;;;2.95;2.40;;;19.30;71.10;;;;;;5074924;28;20423;-78
2022/08/03 02:06:58;;;;;;;3.83;2.45;;;19.20;71.40;;;;;;5074905;28;20074;-77
2022/08/03 02:09:26;;;;;;;3.15;2.58;;;19.10;71.80;;;;;;5074663;28;20025;-77
2022/08/03 02:11:53;;;;;;;2.78;2.42;;;19.10;71.80;;;;;;5074276;28;20499;-77
2022/08/03 02:14:21;;;;;;;4.10;2.40;;;19.10;71.80;;;;;;5073182;28;20120;-77
2022/08/03 02:16:47;;;;;;;2.50;2.30;;;19.00;72.40;;;;;;5074724;28;20098;-76
2022/08/03 02:19:15;;;;;;;2.05;1.85;;;18.90;72.80;;;;;;5074565;28;20020;-77
2022/08/03 02:21:44;;;;;;;4.43;2.55;;;18.90;73.00;;;;;;5074306;28;20119;-77
2022/08/03 02:24:10;;;;;;;3.55;2.45;;;18.90;73.10;;;;;;5074323;28;20016;-76
2022/08/03 02:26:38;;;;;;;3.20;2.22;;;18.90;72.90;;;;;;5057734;28;20094;-76
2022/08/03 02:29:15;;;;;;;2.60;2.40;;;18.90;72.70;;;;;;5075425;28;20056;-76
2022/08/03 02:31:43;;;;;;;5.70;2.20;;;18.90;73.70;;;;;;5075257;28;20052;-76
2022/08/03 02:34:18;;;;;;;2.38;2.10;;;18.90;72.90;;;;;;5074333;28;20094;-76
2022/08/03 02:36:48;;;;;;;4.33;2.30;;;18.90;73.10;;;;;;5072803;28;20498;-76
2022/08/03 02:39:19;;;;;;;2.22;2.00;;;18.80;73.00;;;;;;5074411;28;20025;-76
2022/08/03 02:41:48;;;;;;;2.72;2.17;;;18.80;73.40;;;;;;5073973;28;20116;-76
2022/08/03 02:44:17;;;;;;;2.90;2.08;;;18.70;73.70;;;;;;5074045;28;20020;-75
2022/08/03 02:46:46;;;;;;;3.67;2.33;;;18.70;74.00;;;;;;5073804;28;20123;-76
2022/08/03 02:49:15;;;;;;;2.47;1.92;;;18.80;73.40;;;;;;5074061;28;20021;-76
2022/08/03 02:51:42;;;;;;;4.40;2.10;;;18.80;73.10;;;;;;5074090;28;20174;-77
2022/08/03 02:54:09;;;;;;;4.05;2.20;;;18.80;73.00;;;;;;5073581;28;20052;-76
2022/08/03 02:56:38;;;;;;;3.58;2.00;;;18.80;72.90;;;;;;5074964;28;20029;-76
2022/08/03 02:59:06;;;;;;;3.25;2.60;;;18.80;72.80;;;;;;5075050;28;20491;-75
2022/08/03 03:01:32;;;;;;;2.58;2.33;;;18.70;73.40;;;;;;5073672;28;20075;-76
2022/08/03 03:03:59;;;;;;;2.65;2.30;;;18.50;74.30;;;;;;5076543;28;20029;-75
2022/08/03 03:06:26;;;;;;;3.58;2.42;;;18.30;75.00;;;;;;5085734;28;20020;-75
2022/08/03 03:08:54;;;;;;;2.72;2.38;;;18.30;75.60;;;;;;5083859;28;20046;-75
2022/08/03 03:11:22;;;;;;;5.55;2.25;;;18.20;75.80;;;;;;5083860;28;20036;-76
2022/08/03 03:13:48;;;;;;;5.18;2.35;;;18.20;75.80;;;;;;5080260;28;20033;-76
2022/08/03 03:16:15;;;;;;;3.15;2.42;;;18.10;76.20;;;;;;5073430;28;20511;-76
2022/08/03 03:18:43;;;;;;;3.33;1.80;;;18.20;76.00;;;;;;5073193;28;20361;-77
2022/08/03 03:21:10;;;;;;;2.70;1.90;;;18.40;75.60;;;;;;5073228;28;20115;-77
2022/08/03 03:23:37;;;;;;;2.33;2.13;;;18.50;74.80;;;;;;5073187;28;20024;-77
2022/08/03 03:26:04;;;;;;;3.63;2.35;;;18.70;74.10;;;;;;5072749;28;20024;-73
2022/08/03 03:28:30;;;;;;;4.30;2.22;;;18.70;73.70;;;;;;5073108;28;20539;-74
2022/08/03 03:30:57;;;;;;;2.72;2.10;;;18.60;73.80;;;;;;5072905;28;20036;-74
2022/08/03 03:33:23;;;;;;;2.70;2.30;;;18.40;74.40;;;;;;5073049;28;20124;-73
2022/08/03 03:35:50;;;;;;;4.30;2.08;;;18.30;75.30;;;;;;5072846;28;20032;-72
2022/08/03 03:38:16;;;;;;;3.13;2.20;;;18.20;75.20;;;;;;5073953;28;20040;-73
2022/08/03 03:40:42;;;;;;;3.33;2.30;;;18.30;76.00;;;;;;5072791;28;20473;-72
2022/08/03 03:43:09;;;;;;;3.25;2.15;;;18.40;74.90;;;;;;5074799;28;20036;-72
2022/08/03 03:45:35;;;;;;;2.70;1.98;;;18.30;75.00;;;;;;5074609;28;20381;-71
2022/08/03 03:48:03;;;;;;;3.38;2.72;;;18.30;75.10;;;;;;5076089;28;20027;-72
2022/08/03 03:50:31;;;;;;;2.20;2.00;;;18.20;75.30;;;;;;5077198;28;20028;-72
2022/08/03 03:52:57;;;;;;;3.72;2.17;;;18.20;75.50;;;;;;5074094;28;20031;-74
2022/08/03 03:55:23;;;;;;;2.45;1.92;;;18.20;75.50;;;;;;5073143;28;20035;-74
2022/08/03 03:57:49;;;;;;;2.53;2.33;;;18.30;75.20;;;;;;5074266;28;20107;-75
2022/08/03 04:00:16;;;;;;;3.65;2.33;;;18.40;74.80;;;;;;5073576;28;20417;-79
2022/08/03 04:02:43;;;;;;;2.22;2.03;;;18.40;74.40;;;;;;5073508;28;20032;-81
2022/08/03 04:11:10;;;;;;;3.20;2.45;;;18.40;74.60;;;;;;5073485;28;20047;-82
2022/08/03 04:13:42;;;;;;;2.45;1.85;;;18.20;75.10;;;;;;5072040;28;20222;-82
2022/08/03 04:16:11;;;;;;;2.55;1.92;;;18.20;75.20;;;;;;5073426;28;20457;-77
2022/08/03 04:18:39;;;;;;;3.30;2.05;;;18.30;75.20;;;;;;5073394;28;20020;-81
2022/08/03 04:21:09;;;;;;;2.67;2.00;;;18.30;75.10;;;;;;5073429;28;20028;-77
2022/08/03 04:23:38;;;;;;;4.35;1.95;;;18.40;75.00;;;;;;5073253;28;20055;-80
2022/08/03 04:26:08;;;;;;;4.28;2.08;;;18.40;74.80;;;;;;5073397;28;20064;-73
2022/08/03 04:28:36;;;;;;;4.22;1.70;;;18.40;74.60;;;;;;5073032;28;20032;-81
2022/08/03 04:31:03;;;;;;;3.40;1.70;;;18.50;74.30;;;;;;5073024;28;20028;-81
2022/08/03 04:33:32;;;;;;;2.30;2.03;;;18.70;73.90;;;;;;5073006;28;20044;-81
2022/08/03 04:35:59;;;;;;;2.25;1.85;;;18.70;73.50;;;;;;5072876;28;20021;-81
2022/08/03 04:38:28;;;;;;;4.13;1.80;;;18.90;73.00;;;;;;5072903;28;20024;-79
2022/08/03 04:40:55;;;;;;;2.85;1.58;;;19.00;72.50;;;;;;5073070;28;20163;-78
2022/08/03 04:43:21;;;;;;;3.92;1.73;;;19.10;72.10;;;;;;5072989;28;20028;-80
2022/08/03 04:45:49;;;;;;;3.35;1.67;;;19.10;71.70;;;;;;5073102;28;20366;-80
2022/08/03 04:48:14;;;;;;;3.08;1.67;;;19.20;71.50;;;;;;5073079;28;20024;-79
2022/08/03 04:50:41;;;;;;;2.50;2.08;;;19.20;71.40;;;;;;5072927;28;20492;-80
2022/08/03 04:53:07;;;;;;;3.38;2.13;;;19.20;71.50;;;;;;5073066;28;20046;-78
2022/08/03 04:55:34;;;;;;;6.05;2.80;;;19.10;72.00;;;;;;5073060;28;20051;-74
2022/08/03 04:58:01;;;;;;;6.78;2.75;;;19.10;72.10;;;;;;5073004;28;20017;-81
2022/08/03 05:00:27;;;;;;;7.28;2.63;;;19.00;72.30;;;;;;5072962;28;20480;-74
2022/08/03 05:02:53;;;;;;;7.18;1.92;;;19.00;72.50;;;;;;5073163;28;20032;-80
2022/08/03 05:05:19;;;;;;;3.67;2.22;;;19.10;72.20;;;;;;5073698;28;20017;-73
2022/08/03 05:07:44;;;;;;;3.67;2.28;;;19.10;72.40;;;;;;5071562;28;20032;-80
2022/08/03 05:10:11;;;;;;;2.45;1.63;;;19.10;72.30;;;;;;5072847;28;20036;-74
2022/08/03 05:12:37;;;;;;;2.97;1.88;;;19.20;72.00;;;;;;5072746;28;20032;-73
2022/08/03 05:15:04;;;;;;;3.00;1.80;;;19.30;71.60;;;;;;5072687;28;20474;-72
2022/08/03 05:17:30;;;;;;;2.28;1.70;;;19.40;71.10;;;;;;5072643;28;20424;-72
2022/08/03 05:19:55;;;;;;;3.08;1.98;;;19.50;70.70;;;;;;5072754;28;20029;-73
2022/08/03 05:22:21;;;;;;;3.97;2.40;;;19.70;70.20;;;;;;5072701;28;20350;-72
2022/08/03 05:24:48;;;;;;;6.20;1.85;;;19.80;69.70;;;;;;5072525;28;20425;-73
2022/08/03 05:27:18;;;;;;;3.90;1.80;;;19.90;69.50;;;;;;5072598;28;20082;-72
2022/08/03 05:29:48;;;;;;;2.05;1.63;;;20.10;69.10;;;;;;5072594;28;20027;-72
2022/08/03 05:32:15;;;;;;;2.60;2.22;;;20.20;68.50;;;;;;5072447;28;20045;-72
2022/08/03 05:34:41;;;;;;;4.25;1.70;;;20.30;68.20;;;;;;5072462;28;20037;-72
2022/08/03 05:37:06;;;;;;;1.77;1.65;;;20.40;67.50;;;;;;5072509;28;20112;-72
2022/08/03 05:39:32;;;;;;;3.55;1.75;;;20.40;67.10;;;;;;5072486;28;20385;-72
2022/08/03 05:41:59;;;;;;;3.25;1.88;;;20.40;67.30;;;;;;5072394;28;20028;-72
2022/08/03 05:44:24;;;;;;;3.25;2.00;;;20.40;67.50;;;;;;5072606;28;20097;-72
2022/08/03 05:46:50;;;;;;;4.20;2.17;;;20.40;67.50;;;;;;5072472;28;20028;-72
2022/08/03 05:49:16;;;;;;;1.83;1.48;;;20.40;67.70;;;;;;5074351;28;20125;-72
2022/08/03 05:51:42;;;;;;;4.18;2.08;;;20.60;67.50;;;;;;5076072;28;20415;-72
2022/08/03 05:54:08;;;;;;;4.38;2.00;;;20.60;67.10;;;;;;5075950;28;20069;-72
2022/08/03 05:56:34;;;;;;;2.13;1.50;;;20.70;67.10;;;;;;5075859;28;20085;-73
2022/08/03 05:59:00;;;;;;;3.10;1.90;;;20.80;67.00;;;;;;5075911;28;20046;-74
2022/08/03 06:01:25;;;;;;;2.88;1.80;;;20.90;66.80;;;;;;5080335;28;20028;-72
2022/08/03 06:03:51;;;;;;;3.67;1.98;;;21.00;66.10;;;;;;5084982;28;20423;-73
2022/08/03 06:06:17;;;;;;;4.00;1.88;;;21.20;65.80;;;;;;5078644;28;20056;-73
2022/08/03 06:08:44;;;;;;;6.00;1.92;;;21.20;66.00;;;;;;5078510;28;20035;-73
2022/08/03 06:11:10;;;;;;;6.25;1.85;;;21.30;66.30;;;;;;5077999;28;20414;-73
2022/08/03 06:13:36;;;;;;;2.28;1.67;;;21.40;66.10;;;;;;5075689;28;20025;-73
2022/08/03 06:16:02;;;;;;;1.55;1.45;;;21.50;65.60;;;;;;5075496;28;20112;-72
2022/08/03 06:18:27;;;;;;;1.70;1.60;;;21.60;64.90;;;;;;5075189;28;20120;-73
2022/08/03 06:20:53;;;;;;;1.60;1.40;;;21.70;64.40;;;;;;5075325;28;20036;-72
2022/08/03 06:23:19;;;;;;;3.80;1.80;;;21.90;63.90;;;;;;5075522;28;20063;-72
2022/08/03 06:25:45;;;;;;;3.90;1.90;;;22.10;63.40;;;;;;5075226;28;20145;-73
2022/08/03 06:28:13;;;;;;;3.70;2.00;;;22.20;63.00;;;;;;5074009;28;20032;-72
2022/08/03 06:30:39;;;;;;;8.40;4.57;;;22.20;63.20;;;;;;5073933;28;20033;-73
2022/08/03 06:33:04;;;;;;;3.65;2.60;;;22.30;62.80;;;;;;5074975;28;20045;-72
2022/08/03 06:35:30;;;;;;;4.80;2.20;;;22.50;62.30;;;;;;5075176;28;20044;-73
2022/08/03 06:37:55;;;;;;;2.10;1.75;;;22.60;61.90;;;;;;5075968;28;20095;-72
2022/08/03 06:40:28;;;;;;;3.80;1.75;;;22.70;61.40;;;;;;5075330;28;20408;-72
2022/08/03 06:42:57;;;;;;;2.97;1.85;;;22.90;61.00;;;;;;5073895;28;20035;-74
2022/08/03 06:45:23;;;;;;;6.00;2.30;;;23.00;60.40;;;;;;5074791;28;20596;-74
2022/08/03 06:48:06;;;;;;;5.10;2.30;;;23.20;59.80;;;;;;5074714;28;20056;-73
2022/08/03 06:50:33;;;;;;;3.90;2.03;;;23.20;59.70;;;;;;5074979;28;20432;-73
2022/08/03 06:52:59;;;;;;;3.70;1.58;;;23.30;59.40;;;;;;5074691;28;20469;-73
2022/08/03 06:55:25;;;;;;;4.15;1.77;;;23.40;59.00;;;;;;5074608;28;20036;-74
2022/08/03 06:57:51;;;;;;;5.03;2.13;;;23.50;58.80;;;;;;5074833;28;20496;-74
2022/08/03 07:00:17;;;;;;;4.13;2.10;;;23.60;58.40;;;;;;5074018;28;20032;-73
2022/08/03 07:02:43;;;;;;;4.82;2.03;;;23.70;58.10;;;;;;5074809;28;20448;-74
2022/08/03 07:05:09;;;;;;;5.97;4.15;;;23.80;58.10;;;;;;5074395;28;20056;-75
2022/08/03 07:07:35;;;;;;;2.38;1.88;;;23.90;57.80;;;;;;5072978;28;20422;-73
2022/08/03 07:10:01;;;;;;;7.85;2.13;;;24.00;57.60;;;;;;5074223;28;20025;-73
2022/08/03 07:12:27;;;;;;;3.00;1.60;;;24.10;57.10;;;;;;5074112;28;20031;-72
2022/08/03 07:14:54;;;;;;;2.80;1.90;;;24.20;57.10;;;;;;5074139;28;20043;-73
2022/08/03 07:17:20;;;;;;;6.28;2.50;;;24.40;56.70;;;;;;5074047;28;20473;-78
2022/08/03 07:19:45;;;;;;;2.28;1.63;;;24.50;56.20;;;;;;5074209;28;20082;-78
2022/08/03 07:22:11;;;;;;;6.97;2.47;;;24.70;55.80;;;;;;5072546;28;20146;-72
2022/08/03 07:24:36;;;;;;;7.13;2.33;;;24.80;55.00;;;;;;5072665;28;20017;-72
2022/08/03 07:27:02;;;;;;;5.15;1.80;;;25.00;54.40;;;;;;5074234;28;20431;-72
2022/08/03 07:29:28;;;;;;;2.50;1.52;;;25.10;53.90;;;;;;5073853;28;20017;-74
2022/08/03 07:31:54;;;;;;;2.88;1.55;;;25.20;53.80;;;;;;5073792;28;20091;-73
2022/08/03 07:34:20;;;;;;;3.95;2.42;;;25.40;53.40;;;;;;5073598;28;20424;-76
2022/08/03 07:36:45;;;;;;;2.25;1.13;;;25.50;52.60;;;;;;5073797;28;20029;-74
2022/08/03 07:39:11;;;;;;;1.83;1.20;;;25.60;46.50;;;;;;5073865;28;20029;-74
2022/08/03 07:41:36;;;;;;;0.70;0.70;;;25.80;46.30;;;;;;5073746;28;20071;-74
2022/08/03 07:44:02;;;;;;;2.38;0.88;;;25.90;43.90;;;;;;5073698;28;20020;-73
2022/08/03 07:46:27;;;;;;;1.63;0.90;;;26.00;44.30;;;;;;5073788;28;20028;-72
2022/08/03 07:48:53;;;;;;;1.27;1.10;;;26.00;42.80;;;;;;5073634;28;20021;-74
2022/08/03 07:51:19;;;;;;;1.13;1.02;;;26.10;43.30;;;;;;5073587;28;20060;-76
2022/08/03 07:53:45;;;;;;;1.42;1.20;;;26.30;42.80;;;;;;5073396;28;20074;-77
2022/08/03 07:56:10;;;;;;;1.15;0.93;;;26.40;42.10;;;;;;5072201;28;20032;-75
2022/08/03 07:58:36;;;;;;;2.13;1.17;;;26.50;41.60;;;;;;5073495;28;20024;-75
2022/08/03 08:01:02;;;;;;;1.23;0.90;;;26.60;41.50;;;;;;5073204;28;20031;-75
2022/08/03 08:03:27;;;;;;;1.25;1.02;;;26.70;41.80;;;;;;5073718;28;20077;-75
2022/08/03 08:05:53;;;;;;;8.57;1.58;;;26.70;41.00;;;;;;5073396;28;20095;-74
2022/08/03 08:08:19;;;;;;;5.18;1.38;;;26.60;41.10;;;;;;5073525;28;20035;-75
2022/08/03 08:10:45;;;;;;;3.65;0.93;;;26.80;40.80;;;;;;5073416;28;20028;-75
2022/08/03 08:13:11;;;;;;;2.05;1.08;;;26.90;40.30;;;;;;5073193;28;20032;-75
2022/08/03 08:15:37;;;;;;;1.02;0.90;;;27.00;41.10;;;;;;5078980;28;20036;-76
2022/08/03 08:18:02;;;;;;;1.27;0.95;;;27.10;40.40;;;;;;5073203;28;20016;-80
2022/08/03 08:20:33;;;;;;;1.30;1.20;;;27.20;40.50;;;;;;5073243;28;20108;-75
2022/08/03 08:23:01;;;;;;;1.00;0.90;;;27.30;40.10;;;;;;5073008;28;20017;-74
2022/08/03 08:25:27;;;;;;;1.63;1.02;;;27.30;38.90;;;;;;5071660;28;20107;-75
2022/08/03 08:27:53;;;;;;;1.48;1.02;;;27.30;39.50;;;;;;5072948;28;20032;-74
2022/08/03 08:30:21;;;;;;;2.67;0.90;;;27.40;39.00;;;;;;5071398;28;20423;-75
2022/08/03 08:32:48;;;;;;;1.63;0.82;;;27.40;39.10;;;;;;5072507;28;20159;-75
2022/08/03 08:35:13;;;;;;;0.90;0.80;;;27.40;38.40;;;;;;5072734;28;20473;-75
2022/08/03 08:37:40;;;;;;;2.72;0.90;;;27.40;38.20;;;;;;5072671;28;20023;-74
2022/08/03 08:40:07;;;;;;;1.02;0.93;;;27.50;38.50;;;;;;5072917;28;20028;-74
2022/08/03 08:42:33;;;;;;;4.43;1.10;;;27.50;38.90;;;;;;5072864;28;20031;-75
2022/08/03 08:45:04;;;;;;;2.45;1.30;;;27.70;39.50;;;;;;5072505;28;20061;-75
2022/08/03 08:47:31;;;;;;;2.67;1.15;;;27.70;37.80;;;;;;5072715;28;20501;-75
2022/08/03 08:49:57;;;;;;;1.77;0.98;;;27.70;38.20;;;;;;5071020;28;20423;-76
2022/08/03 08:52:25;;;;;;;0.80;0.80;;;27.80;37.40;;;;;;5072524;28;20338;-77
2022/08/03 08:54:56;;;;;;;1.75;1.00;;;27.70;37.70;;;;;;5072507;28;20124;-75
2022/08/03 08:57:27;;;;;;;3.88;1.20;;;27.80;37.30;;;;;;5071556;28;20473;-77
2022/08/03 08:59:55;;;;;;;0.90;0.90;;;27.80;37.60;;;;;;5072709;28;20082;-74
2022/08/03 09:02:24;;;;;;;0.88;0.88;;;27.90;37.40;;;;;;5072583;28;20033;-75
2022/08/03 09:04:51;;;;;;;1.42;1.23;;;27.90;37.10;;;;;;5072894;28;20032;-76
2022/08/03 09:07:17;;;;;;;1.17;1.02;;;28.00;37.00;;;;;;5072483;28;20470;-75
2022/08/03 09:09:43;;;;;;;0.95;0.95;;;28.10;37.30;;;;;;5072829;28;20082;-76
2022/08/03 09:12:09;;;;;;;2.55;1.10;;;28.10;38.00;;;;;;5072466;28;20465;-76
2022/08/03 09:14:34;;;;;;;2.35;0.82;;;28.30;36.80;;;;;;5072343;28;20044;-75
2022/08/03 09:17:02;;;;;;;1.88;0.90;;;28.30;36.60;;;;;;5072536;28;20029;-75
2022/08/03 09:19:30;;;;;;;3.08;1.20;;;28.40;36.60;;;;;;5072779;28;20024;-75
2022/08/03 09:22:15;;;;;;;3.50;1.13;;;28.50;34.90;;;;;;5073491;28;20024;-75
2022/08/03 09:24:54;;;;;;;;;;;28.40;35.50;;;;;;5078137;28;20031;-75
2022/08/03 09:27:20;;;;;;;3.60;0.90;;;28.40;35.90;;;;;;5078048;28;20311;-76
2022/08/03 09:29:53;;;;;;;2.63;1.25;;;28.50;35.00;;;;;;5092053;28;20037;-74
2022/08/03 09:32:21;;;;;;;1.02;0.98;;;28.50;34.90;;;;;;5080179;28;20040;-76
2022/08/03 09:34:48;;;;;;;2.58;1.23;;;28.50;34.80;;;;;;5093104;28;20025;-74
2022/08/03 09:37:15;;;;;;;1.02;0.95;;;28.60;34.10;;;;;;5084791;28;20013;-75
2022/08/03 09:39:41;;;;;;;0.85;0.80;;;28.70;33.70;;;;;;5081150;28;20485;-75
2022/08/03 09:42:18;;;;;;;2.35;1.00;;;28.80;33.40;;;;;;5087869;28;20025;-75
2022/08/03 09:44:45;;;;;;;1.10;0.90;;;28.80;33.70;;;;;;5076450;28;20108;-76
2022/08/03 09:47:13;;;;;;;1.17;1.08;;;28.80;34.00;;;;;;5076237;28;20024;-75
2022/08/03 09:49:41;;;;;;;1.20;1.08;;;28.90;33.70;;;;;;5075940;28;20021;-75
2022/08/03 09:52:17;;;;;;;2.08;1.17;;;29.00;33.20;;;;;;5075871;28;20016;-76
2022/08/03 09:54:43;;;;;;;3.78;0.98;;;29.10;33.60;;;;;;5075895;28;20119;-76
2022/08/03 09:57:22;;;;;;;1.80;1.10;;;29.20;33.20;;;;;;5075898;28;20477;-77
2022/08/03 09:59:50;;;;;;;3.03;1.00;;;29.20;32.50;;;;;;5075752;28;20021;-75
2022/08/03 10:02:26;;;;;;;2.38;1.40;;;29.30;33.00;;;;;;5075901;28;20130;-85
2022/08/03 10:04:53;;;;;;;2.25;1.40;;;29.40;31.60;;;;;;5076164;28;20480;-77
2022/08/03 10:07:23;;;;;;;3.35;1.33;;;29.50;31.30;;;;;;5074512;28;20024;-86
2022/08/03 10:09:54;;;;;;;1.48;1.38;;;29.50;31.10;;;;;;5074811;28;20025;-84
2022/08/03 10:12:20;;;;;;;3.90;1.23;;;29.60;31.70;;;;;;5075838;28;20062;-84
2022/08/03 10:14:46;;;;;;;2.25;1.33;;;29.70;31.30;;;;;;5075353;28;20473;-74
2022/08/03 10:17:12;;;;;;;2.20;1.10;;;29.90;31.40;;;;;;5075489;28;20050;-88
2022/08/03 10:19:38;;;;;;;1.20;1.10;;;30.10;30.90;;;;;;5074023;28;20032;-84
2022/08/03 10:22:09;;;;;;;2.97;1.42;;;30.20;31.00;;;;;;5075352;28;20031;-73
2022/08/03 10:24:38;;;;;;;2.17;1.13;;;30.30;30.20;;;;;;5075039;28;20024;-76
2022/08/03 10:27:06;;;;;;;1.92;1.35;;;30.40;30.30;;;;;;5073622;28;20032;-74
2022/08/03 10:29:37;;;;;;;1.98;1.33;;;30.50;30.10;;;;;;5075114;28;20043;-76
2022/08/03 10:32:08;;;;;;;1.23;1.13;;;30.70;29.20;;;;;;5073638;28;20041;-78
2022/08/03 10:34:39;;;;;;;1.55;1.38;;;30.90;28.70;;;;;;5073731;28;20032;-74
2022/08/03 10:37:10;;;;;;;1.33;1.23;;;31.10;29.00;;;;;;5075057;28;20056;-74
2022/08/03 10:39:36;;;;;;;1.02;0.95;;;31.20;28.10;;;;;;5075198;28;20024;-75
2022/08/03 10:42:03;;;;;;;7.43;1.45;;;31.40;27.70;;;;;;5075140;28;20020;-79
2022/08/03 10:44:36;;;;;;;1.30;1.10;;;31.50;28.30;;;;;;5075103;28;20036;-77
2022/08/03 10:47:02;;;;;;;2.80;1.20;;;31.60;26.70;;;;;;5074608;28;20032;-73
2022/08/03 10:49:29;;;;;;;1.90;0.98;;;31.70;27.30;;;;;;5074668;28;20354;-73
2022/08/03 10:51:54;;;;;;;2.30;1.20;;;31.80;26.90;;;;;;5074700;28;20104;-73
2022/08/03 10:57:49;;;;;;;1.38;1.02;;;32.00;27.10;;;;;;5074894;28;20105;-74
2022/08/03 11:00:17;;;;;;;1.95;1.30;;;32.10;26.80;;;;;;5073485;28;20077;-72
2022/08/03 11:03:15;;;;;;;1.77;1.30;;;32.10;26.40;;;;;;5074748;28;20481;-72
2022/08/03 11:05:53;;;;;;;2.45;1.05;;;32.30;26.20;;;;;;5074652;28;20055;-72
2022/08/03 11:08:27;;;;;;;5.32;1.50;;;32.40;26.10;;;;;;5074666;28;20473;-74
2022/08/03 11:11:27;;;;;;;2.17;1.30;;;32.50;25.60;;;;;;5074773;28;20457;-75
2022/08/03 11:14:03;;;;;;;1.70;1.20;;;32.60;25.30;;;;;;5074415;28;20017;-73
2022/08/03 11:16:31;;;;;;;2.67;1.45;;;32.60;24.80;;;;;;5074634;28;20024;-80
2022/08/03 11:19:05;;;;;;;2.15;1.20;;;32.70;24.70;;;;;;5074208;28;20021;-80
2022/08/03 11:21:52;;;;;;;2.78;1.20;;;32.70;24.90;;;;;;5074408;28;20515;-77
2022/08/03 11:24:35;;;;;;;0.90;0.80;;;32.70;24.00;;;;;;5074202;28;20035;-74
2022/08/03 11:27:13;;;;;;;1.77;0.80;;;32.90;24.00;;;;;;5074140;28;20028;-77
2022/08/03 11:29:58;;;;;;;2.78;1.15;;;32.90;24.30;;;;;;5074178;28;20035;-77
2022/08/03 11:32:36;;;;;;;;;;;33.00;24.40;;;;;;5074462;28;20087;-74
2022/08/03 11:35:14;;;;;;;1.00;1.00;;;33.10;24.60;;;;;;5074063;28;19912;-73
2022/08/03 11:38:04;;;;;;;1.30;1.20;;;33.20;24.20;;;;;;5074052;28;20039;-74
2022/08/03 11:40:50;;;;;;;1.25;0.98;;;33.30;24.20;;;;;;5074139;28;20027;-74
2022/08/03 11:43:33;;;;;;;1.50;1.35;;;33.50;23.80;;;;;;5074081;28;20417;-73
2022/08/03 11:46:12;;;;;;;1.30;1.20;;;33.60;23.50;;;;;;5073722;28;20520;-73
2022/08/03 11:48:43;;;;;;;3.80;1.20;;;33.80;22.80;;;;;;5074057;28;20032;-74
2022/08/03 11:51:23;;;;;;;1.40;1.00;;;33.90;22.90;;;;;;5073787;28;20085;-74
2022/08/03 11:53:56;;;;;;;1.58;1.27;;;33.80;22.20;;;;;;5073799;28;20056;-74
2022/08/03 11:56:22;;;;;;;3.60;1.02;;;33.90;23.30;;;;;;5073815;28;20074;-74
2022/08/03 11:58:56;;;;;;;1.10;0.95;;;33.90;21.90;;;;;;5073565;28;20020;-75
2022/08/03 12:01:23;;;;;;;2.15;1.15;;;33.80;21.30;;;;;;5073508;28;20465;-73
2022/08/03 12:03:49;;;;;;;1.88;1.23;;;33.60;21.80;;;;;;5073517;28;20104;-77
2022/08/03 12:06:16;;;;;;;1.58;1.20;;;33.40;22.90;;;;;;5074814;28;20024;-78
2022/08/03 12:08:43;;;;;;;1.70;1.20;;;33.40;23.30;;;;;;5083875;28;20385;-80
2022/08/03 12:11:12;;;;;;;0.98;0.95;;;33.40;22.80;;;;;;5079015;28;20029;-81
2022/08/03 12:13:43;;;;;;;1.38;1.25;;;33.50;22.60;;;;;;5073495;28;20059;-82
2022/08/03 12:16:08;;;;;;;1.42;1.10;;;33.40;22.80;;;;;;5073414;28;20472;-81
2022/08/03 12:18:34;;;;;;;1.48;1.00;;;33.50;23.20;;;;;;5073404;28;20057;-81
2022/08/03 12:21:10;;;;;;;2.50;1.15;;;33.80;22.50;;;;;;5073393;28;20021;-79
2022/08/03 12:23:36;;;;;;;2.08;1.20;;;34.10;22.20;;;;;;5073098;28;20016;-79
2022/08/03 12:26:08;;;;;;;4.47;1.63;;;34.20;21.50;;;;;;5073118;28;20020;-81
2022/08/03 12:28:35;;;;;;;1.30;1.05;;;34.40;21.50;;;;;;5073105;28;20643;-74
2022/08/03 12:31:05;;;;;;;1.00;0.90;;;34.60;21.70;;;;;;5072893;28;20379;-74
2022/08/03 12:33:31;;;;;;;1.15;1.05;;;34.90;21.50;;;;;;5073087;28;20067;-74
2022/08/03 12:36:08;;;;;;;1.52;0.90;;;35.10;20.90;;;;;;5073130;28;20032;-74
2022/08/03 12:38:36;;;;;;;1.30;1.05;;;35.20;20.70;;;;;;5072962;28;20095;-74
2022/08/03 12:41:12;;;;;;;2.08;0.98;;;35.30;20.80;;;;;;5076454;28;20381;-75
2022/08/03 12:43:46;;;;;;;1.27;0.90;;;35.40;20.50;;;;;;5073185;28;20028;-74
2022/08/03 12:46:14;;;;;;;1.20;1.10;;;35.50;20.20;;;;;;5073099;28;20020;-83
2022/08/03 12:49:05;;;;;;;1.05;0.98;;;35.60;20.20;;;;;;5072898;28;20025;-74
2022/08/03 12:51:37;;;;;;;1.52;1.13;;;35.80;19.50;;;;;;5072770;28;20017;-75
2022/08/03 12:54:04;;;;;;;1.45;1.10;;;35.80;19.30;;;;;;5072853;28;20024;-74
2022/08/03 12:56:30;;;;;;;1.85;1.00;;;35.80;19.10;;;;;;5072859;28;20078;-75
2022/08/03 12:58:55;;;;;;;2.20;1.45;;;35.80;20.00;;;;;;5070819;28;20408;-74
2022/08/03 13:01:23;;;;;;;2.75;1.27;;;36.00;19.40;;;;;;5072253;28;20028;-83
2022/08/03 13:03:50;;;;;;;3.42;1.30;;;36.10;19.70;;;;;;5073105;28;20044;-73
2022/08/03 13:06:19;;;;;;;0.98;0.98;;;35.90;19.10;;;;;;5072503;28;20020;-78